createdAt,value
2018-12-31T00:00:03.192Z,9.80
2018-12-31T00:02:39.634Z,9.80
2018-12-31T00:05:10.617Z,9.90
2018-12-31T00:07:41.367Z,9.90
2018-12-31T00:10:13.738Z,9.80
2018-12-31T00:12:45.506Z,9.80
2018-12-31T00:15:16.277Z,9.80
2018-12-31T00:17:47.126Z,9.80
2018-12-31T00:20:17.823Z,9.80
2018-12-31T00:22:48.622Z,9.80
2018-12-31T00:25:19.456Z,9.80
2018-12-31T00:27:50.202Z,9.90
2018-12-31T00:30:21.986Z,9.90
2018-12-31T00:32:52.765Z,9.90
2018-12-31T00:35:23.598Z,9.80
2018-12-31T00:37:54.390Z,9.80
2018-12-31T00:40:25.138Z,9.80
2018-12-31T00:42:59.103Z,9.80
2018-12-31T00:45:28.358Z,9.80
2018-12-31T00:47:59.178Z,9.80
2018-12-31T00:50:31.562Z,9.80
2018-12-31T00:53:03.322Z,9.80
2018-12-31T00:55:35.030Z,9.80
2018-12-31T00:58:05.899Z,9.80
2018-12-31T01:00:36.910Z,9.80
2018-12-31T01:03:08.325Z,9.80
2018-12-31T01:05:39.206Z,9.80
2018-12-31T01:08:09.890Z,9.80
2018-12-31T01:10:41.203Z,9.80
2018-12-31T01:13:12.041Z,9.80
2018-12-31T01:15:42.785Z,9.80
2018-12-31T01:18:13.623Z,9.80
2018-12-31T01:20:44.375Z,9.80
2018-12-31T01:23:15.784Z,9.80
2018-12-31T01:25:46.526Z,9.80
2018-12-31T01:28:17.277Z,9.70
2018-12-31T01:30:48.048Z,9.80
2018-12-31T01:33:18.713Z,9.80
2018-12-31T01:35:49.515Z,9.80
2018-12-31T01:38:20.303Z,9.70
2018-12-31T01:40:51.071Z,9.70
2018-12-31T01:43:21.822Z,9.70
2018-12-31T01:45:52.608Z,9.70
2018-12-31T01:48:23.445Z,9.70
2018-12-31T01:50:54.166Z,9.60
2018-12-31T02:09:16.448Z,9.60
2018-12-31T02:11:47.143Z,9.60
2018-12-31T02:14:17.817Z,9.50
2018-12-31T02:16:48.563Z,9.60
2018-12-31T02:19:19.282Z,9.60
2018-12-31T02:21:50.198Z,9.50
2018-12-31T02:24:21.058Z,9.50
2018-12-31T02:26:53.362Z,9.50
2018-12-31T02:29:24.057Z,9.50
2018-12-31T02:31:54.838Z,9.50
2018-12-31T02:34:25.648Z,9.50
2018-12-31T02:36:56.398Z,9.50
2018-12-31T02:39:27.085Z,9.50
2018-12-31T02:41:57.744Z,9.50
2018-12-31T02:44:29.867Z,9.40
2018-12-31T02:47:00.578Z,9.40
2018-12-31T02:49:31.443Z,9.50
2018-12-31T02:52:02.195Z,9.40
2018-12-31T02:54:32.839Z,9.40
2018-12-31T02:57:03.555Z,9.50
2018-12-31T02:59:34.323Z,9.40
2018-12-31T03:02:05.046Z,9.40
2018-12-31T03:04:36.070Z,9.40
2018-12-31T03:07:08.519Z,9.40
2018-12-31T03:09:39.450Z,9.40
2018-12-31T03:12:10.234Z,9.40
2018-12-31T03:14:41.031Z,9.40
2018-12-31T03:17:11.870Z,9.40
2018-12-31T03:19:44.071Z,9.40
2018-12-31T03:22:14.937Z,9.40
2018-12-31T03:24:45.684Z,9.40
2018-12-31T03:27:16.416Z,9.40
2018-12-31T03:29:47.105Z,9.40
2018-12-31T03:32:17.855Z,9.40
2018-12-31T03:34:49.955Z,9.40
2018-12-31T03:37:20.723Z,9.40
2018-12-31T03:39:51.597Z,9.30
2018-12-31T03:42:22.279Z,9.30
2018-12-31T03:44:52.956Z,9.30
2018-12-31T03:47:23.684Z,9.30
2018-12-31T03:49:54.593Z,9.30
2018-12-31T03:52:25.291Z,9.30
2018-12-31T03:54:56.067Z,9.30
2018-12-31T03:57:26.743Z,9.30
2018-12-31T03:59:57.589Z,9.30
2018-12-31T04:02:28.307Z,9.30
2018-12-31T04:04:59.994Z,9.30
2018-12-31T04:07:30.765Z,9.30
2018-12-31T04:10:01.514Z,9.30
2018-12-31T04:12:32.214Z,9.30
2018-12-31T04:15:02.973Z,9.30
2018-12-31T04:17:35.252Z,9.30
2018-12-31T04:20:06.127Z,9.30
2018-12-31T04:22:37.373Z,9.30
2018-12-31T04:25:08.383Z,9.20
2018-12-31T04:27:39.281Z,9.20
2018-12-31T04:30:10.173Z,9.30
2018-12-31T04:32:42.405Z,9.30
2018-12-31T04:35:13.177Z,9.30
2018-12-31T04:37:43.973Z,9.30
2018-12-31T04:40:14.769Z,9.30
2018-12-31T04:42:45.521Z,9.30
2018-12-31T04:45:17.278Z,9.20
2018-12-31T04:47:48.005Z,9.30
2018-12-31T04:50:18.778Z,9.30
2018-12-31T04:52:49.509Z,9.30
2018-12-31T04:55:20.253Z,9.20
2018-12-31T04:57:50.994Z,9.20
2018-12-31T05:00:21.721Z,9.30
2018-12-31T05:02:52.369Z,9.20
2018-12-31T05:05:24.420Z,9.20
2018-12-31T05:07:55.071Z,9.20
2018-12-31T05:10:25.803Z,9.20
2018-12-31T05:12:56.579Z,9.20
2018-12-31T05:15:27.436Z,9.20
2018-12-31T05:17:58.167Z,9.20
2018-12-31T05:20:29.646Z,9.20
2018-12-31T05:23:00.301Z,9.20
2018-12-31T05:25:31.285Z,9.30
2018-12-31T05:28:02.347Z,9.20
2018-12-31T05:30:33.241Z,9.20
2018-12-31T05:33:03.973Z,9.20
2018-12-31T05:35:36.482Z,9.20
2018-12-31T05:38:07.232Z,9.20
2018-12-31T05:40:38.087Z,9.20
2018-12-31T05:43:08.790Z,9.20
2018-12-31T05:45:39.444Z,9.20
2018-12-31T05:48:10.154Z,9.20
2018-12-31T05:50:41.001Z,9.20
2018-12-31T05:53:11.618Z,9.20
2018-12-31T05:55:42.268Z,9.20
2018-12-31T05:58:13.387Z,9.20
2018-12-31T06:00:46.970Z,9.20
2018-12-31T06:03:17.843Z,9.20
2018-12-31T06:05:48.696Z,9.20
2018-12-31T06:08:19.471Z,9.20
2018-12-31T06:10:50.336Z,9.20
2018-12-31T06:13:21.029Z,9.20
2018-12-31T06:15:51.763Z,9.20
2018-12-31T06:18:26.096Z,9.20
2018-12-31T06:20:57.052Z,9.20
2018-12-31T06:23:27.864Z,9.20
2018-12-31T06:25:58.767Z,9.20
2018-12-31T06:28:29.582Z,9.20
2018-12-31T06:31:00.740Z,9.20
2018-12-31T06:33:31.518Z,9.20
2018-12-31T06:36:02.778Z,9.20
2018-12-31T06:38:33.593Z,9.20
2018-12-31T06:41:05.977Z,9.30
2018-12-31T06:43:36.812Z,9.30
2018-12-31T06:46:08.195Z,9.20
2018-12-31T06:48:39.455Z,9.30
2018-12-31T06:51:10.785Z,9.30
2018-12-31T06:53:42.138Z,9.20
2018-12-31T06:56:13.147Z,9.30
2018-12-31T06:58:44.555Z,9.20
2018-12-31T07:01:15.313Z,9.30
2018-12-31T07:03:46.039Z,9.30
2018-12-31T07:06:16.862Z,9.30
2018-12-31T07:08:47.632Z,9.30
2018-12-31T07:11:18.431Z,9.20
2018-12-31T07:13:49.926Z,9.20
2018-12-31T07:16:20.755Z,9.30
2018-12-31T07:18:52.564Z,9.40
2018-12-31T07:21:23.368Z,9.30
2018-12-31T07:23:54.148Z,9.30
2018-12-31T07:26:24.937Z,9.30
2018-12-31T07:28:55.634Z,9.30
2018-12-31T07:31:26.401Z,9.30
2018-12-31T07:33:57.097Z,9.30
2018-12-31T07:36:27.759Z,9.30
2018-12-31T07:38:58.510Z,9.20
2018-12-31T07:41:29.239Z,9.30
2018-12-31T07:43:59.982Z,9.30
2018-12-31T07:46:30.753Z,9.30
2018-12-31T07:49:01.588Z,9.30
2018-12-31T07:51:32.317Z,9.30
2018-12-31T07:54:03.113Z,9.30
2018-12-31T07:56:34.083Z,9.30
2018-12-31T07:59:04.896Z,9.30
2018-12-31T08:01:37.320Z,9.30
2018-12-31T08:04:08.549Z,9.30
2018-12-31T08:06:39.774Z,9.30
2018-12-31T08:09:11.515Z,9.30
2018-12-31T08:11:42.450Z,9.30
2018-12-31T08:14:13.190Z,9.30
2018-12-31T08:16:44.053Z,9.30
2018-12-31T08:19:14.907Z,9.30
2018-12-31T08:21:45.725Z,9.30
2018-12-31T08:24:16.437Z,9.40
2018-12-31T08:26:47.521Z,9.40
2018-12-31T08:29:21.431Z,9.40
2018-12-31T08:31:53.666Z,9.40
2018-12-31T08:34:24.713Z,9.50
2018-12-31T08:36:55.679Z,9.50
2018-12-31T08:39:26.648Z,9.60
2018-12-31T08:41:57.760Z,9.50
2018-12-31T08:44:29.661Z,9.50
2018-12-31T08:47:00.726Z,9.50
2018-12-31T08:49:35.113Z,9.50
2018-12-31T08:52:09.951Z,9.60
2018-12-31T08:54:48.589Z,9.60
2018-12-31T08:57:19.328Z,9.60
2018-12-31T09:00:42.399Z,9.60
2018-12-31T09:03:14.660Z,9.50
2018-12-31T09:09:09.280Z,9.60
2018-12-31T09:12:53.507Z,9.70
2018-12-31T09:15:24.394Z,9.70
2018-12-31T09:17:55.070Z,9.70
2018-12-31T09:20:25.750Z,9.70
2018-12-31T09:26:12.885Z,9.70
2018-12-31T09:28:43.771Z,9.70
2018-12-31T09:31:14.643Z,9.70
2018-12-31T09:34:29.337Z,9.70
2018-12-31T09:37:08.094Z,9.70
2018-12-31T09:40:06.446Z,9.80
2018-12-31T09:46:18.271Z,9.80
2018-12-31T09:48:55.130Z,9.80
2018-12-31T09:51:26.195Z,9.80
2018-12-31T09:53:57.334Z,9.80
2018-12-31T09:56:56.056Z,9.80
2018-12-31T09:59:28.081Z,9.80
2018-12-31T10:02:02.925Z,9.80
2018-12-31T10:04:33.852Z,9.80
2018-12-31T10:07:07.574Z,9.90
2018-12-31T10:09:40.544Z,9.90
2018-12-31T10:12:20.827Z,9.90
2018-12-31T10:14:55.979Z,9.90
2018-12-31T10:17:26.856Z,10.00
2018-12-31T10:20:14.060Z,10.10
2018-12-31T10:23:09.501Z,10.10
2018-12-31T10:25:44.598Z,10.20
2018-12-31T10:28:15.733Z,10.20
2018-12-31T10:30:46.631Z,10.30
2018-12-31T10:33:17.526Z,10.30
2018-12-31T10:35:48.352Z,10.30
2018-12-31T10:38:20.053Z,10.30
2018-12-31T10:40:51.009Z,10.20
2018-12-31T10:43:24.489Z,10.20
2018-12-31T10:45:55.552Z,10.20
2018-12-31T10:48:32.868Z,10.20
2018-12-31T10:51:04.288Z,10.10
2018-12-31T10:53:36.739Z,10.10
2018-12-31T10:56:07.659Z,10.10
2018-12-31T10:58:38.665Z,10.00
2018-12-31T11:01:09.503Z,10.10
2018-12-31T11:03:42.013Z,10.10
2018-12-31T11:06:12.933Z,10.10
2018-12-31T11:08:43.981Z,10.20
2018-12-31T11:11:16.055Z,10.10
2018-12-31T11:13:47.207Z,10.20
2018-12-31T11:16:17.959Z,10.20
2018-12-31T11:18:48.782Z,10.20
2018-12-31T11:21:20.069Z,10.20
2018-12-31T11:23:51.110Z,10.30
2018-12-31T11:26:21.915Z,10.30
2018-12-31T11:28:52.682Z,10.30
2018-12-31T11:31:30.118Z,10.30
2018-12-31T11:33:56.359Z,10.20
2018-12-31T11:36:27.237Z,10.30
2018-12-31T11:39:03.928Z,10.30
2018-12-31T11:41:50.328Z,10.30
2018-12-31T11:44:23.916Z,10.20
2018-12-31T11:46:54.790Z,10.20
2018-12-31T11:49:26.218Z,10.10
2018-12-31T11:51:58.304Z,10.10
2018-12-31T11:57:47.531Z,10.10
2018-12-31T12:00:18.555Z,10.20
2018-12-31T12:02:49.519Z,10.40
2018-12-31T12:05:20.339Z,10.50
2018-12-31T12:07:51.226Z,10.50
2018-12-31T12:10:22.039Z,10.50
2018-12-31T12:16:30.737Z,10.50
2018-12-31T12:19:06.118Z,10.60
2018-12-31T12:21:38.034Z,10.60
2018-12-31T12:24:08.946Z,10.70
2018-12-31T12:26:41.443Z,10.90
2018-12-31T12:29:12.379Z,10.80
2018-12-31T12:31:43.443Z,10.80
2018-12-31T12:34:20.355Z,10.90
2018-12-31T12:36:51.310Z,11.00
2018-12-31T12:39:22.286Z,11.00
2018-12-31T12:41:53.239Z,10.90
2018-12-31T12:44:30.162Z,10.90
2018-12-31T12:47:00.970Z,10.90
2018-12-31T12:49:31.734Z,10.80
2018-12-31T12:52:03.107Z,10.80
2018-12-31T12:54:35.486Z,10.70
2018-12-31T12:57:06.387Z,10.70
2018-12-31T12:59:37.145Z,10.60
2018-12-31T13:02:08.040Z,10.60
2018-12-31T13:04:38.915Z,10.60
2018-12-31T13:07:09.759Z,10.50
2018-12-31T13:09:40.492Z,10.50
2018-12-31T13:12:11.711Z,10.50
2018-12-31T13:14:42.588Z,10.40
2018-12-31T13:17:15.208Z,10.40
2018-12-31T13:19:46.025Z,10.40
2018-12-31T13:22:18.522Z,10.40
2018-12-31T13:24:50.890Z,10.40
2018-12-31T13:27:22.538Z,10.40
2018-12-31T13:29:53.385Z,10.30
2018-12-31T13:32:24.253Z,10.30
2018-12-31T13:34:56.733Z,10.30
2018-12-31T13:37:28.389Z,10.20
2018-12-31T13:39:59.268Z,10.20
2018-12-31T13:42:30.147Z,10.20
2018-12-31T13:45:01.078Z,10.10
2018-12-31T13:47:31.840Z,10.00
2018-12-31T13:50:02.772Z,10.00
2018-12-31T13:52:33.681Z,10.00
2018-12-31T13:55:05.112Z,9.90
2018-12-31T13:57:36.124Z,9.80
2018-12-31T14:00:08.295Z,9.70
2018-12-31T14:02:39.466Z,9.70
2018-12-31T14:05:10.547Z,9.80
2018-12-31T14:07:42.941Z,9.70
2018-12-31T14:10:13.694Z,9.80
2018-12-31T14:12:45.921Z,9.80
2018-12-31T14:15:16.619Z,9.70
2018-12-31T14:17:47.442Z,9.70
2018-12-31T14:20:18.257Z,9.70
2018-12-31T14:22:49.132Z,9.70
2018-12-31T14:25:20.861Z,9.70
2018-12-31T14:27:51.794Z,9.70
2018-12-31T14:30:23.566Z,9.70
2018-12-31T14:32:54.410Z,9.70
2018-12-31T14:35:28.318Z,9.70
2018-12-31T14:37:59.090Z,9.70
2018-12-31T14:40:29.883Z,9.70
2018-12-31T14:43:00.678Z,9.70
2018-12-31T14:45:31.481Z,9.70
2018-12-31T14:48:02.656Z,9.80
2018-12-31T14:50:33.441Z,9.80
2018-12-31T14:53:04.252Z,9.70
2018-12-31T14:55:40.230Z,9.70
2018-12-31T14:58:18.799Z,9.80
2018-12-31T15:00:50.242Z,9.70
2018-12-31T15:03:21.110Z,9.70
2018-12-31T15:05:51.853Z,9.70
2018-12-31T15:08:22.978Z,9.70
2018-12-31T15:10:53.846Z,9.70
2018-12-31T15:13:24.631Z,9.70
2018-12-31T15:15:55.372Z,9.70
2018-12-31T15:18:26.229Z,9.70
2018-12-31T15:20:57.021Z,9.70
2018-12-31T15:23:41.293Z,9.70
2018-12-31T15:26:20.886Z,9.70
2018-12-31T15:28:51.724Z,9.70
2018-12-31T15:31:25.503Z,9.70
2018-12-31T15:33:59.132Z,9.70
2018-12-31T15:36:33.626Z,9.70
2018-12-31T15:39:07.464Z,9.70
2018-12-31T15:41:40.033Z,9.70
2018-12-31T15:44:12.732Z,9.70
2018-12-31T15:47:15.418Z,9.60
2018-12-31T15:50:05.865Z,9.70
2018-12-31T15:56:19.600Z,9.60
2018-12-31T15:58:52.688Z,9.70
2018-12-31T16:01:23.619Z,9.70
2018-12-31T16:03:54.483Z,9.70
2018-12-31T16:06:25.330Z,9.70
2018-12-31T16:08:56.165Z,9.70
2018-12-31T16:11:26.849Z,9.70
2018-12-31T16:13:57.627Z,9.70
2018-12-31T16:16:29.956Z,9.60
2018-12-31T16:19:00.851Z,9.60
2018-12-31T16:21:31.587Z,9.60
2018-12-31T16:24:02.749Z,9.60
2018-12-31T16:26:33.631Z,9.60
2018-12-31T16:29:05.011Z,9.60
2018-12-31T16:31:35.895Z,9.50
2018-12-31T16:34:06.720Z,9.60
2018-12-31T16:36:37.522Z,9.50
2018-12-31T16:39:08.863Z,9.50
2018-12-31T16:41:39.644Z,9.60
2018-12-31T16:44:10.581Z,9.60
2018-12-31T16:46:46.843Z,9.60
2018-12-31T16:49:22.962Z,9.50
2018-12-31T16:51:54.015Z,9.50
2018-12-31T16:54:25.113Z,9.50
2018-12-31T16:56:56.123Z,9.60
2018-12-31T16:59:26.899Z,9.60
2018-12-31T17:01:57.932Z,9.60
2018-12-31T17:04:28.694Z,9.60
2018-12-31T17:06:59.672Z,9.60
2018-12-31T17:09:30.408Z,9.60
2018-12-31T17:12:01.558Z,9.60
2018-12-31T17:14:40.874Z,9.60
2018-12-31T17:17:14.924Z,9.60
2018-12-31T17:19:45.676Z,9.60
2018-12-31T17:22:17.273Z,9.60
2018-12-31T17:24:48.677Z,9.60
2018-12-31T17:27:19.513Z,9.60
2018-12-31T17:29:50.403Z,9.50
2018-12-31T17:32:21.603Z,9.50
2018-12-31T17:35:11.314Z,9.50
2018-12-31T17:37:44.155Z,9.50
2018-12-31T17:40:15.221Z,9.50
2018-12-31T17:42:46.438Z,9.50
2018-12-31T17:45:22.971Z,9.50
2018-12-31T17:47:49.961Z,9.40
2018-12-31T17:50:20.642Z,9.50
2018-12-31T17:52:51.505Z,9.50
2018-12-31T17:55:22.809Z,9.40
2018-12-31T17:57:54.401Z,9.40
2018-12-31T18:00:25.333Z,9.30
2018-12-31T18:02:56.126Z,9.30
2018-12-31T18:05:26.896Z,9.30
2018-12-31T18:07:58.662Z,9.30
2018-12-31T18:10:29.485Z,9.30
2018-12-31T18:13:00.346Z,9.30
2018-12-31T18:15:31.180Z,9.30
2018-12-31T18:18:01.968Z,9.20
2018-12-31T18:20:33.150Z,9.20
2018-12-31T18:23:03.957Z,9.20
2018-12-31T18:25:34.734Z,9.20
2018-12-31T18:28:05.566Z,9.20
2018-12-31T18:30:36.344Z,9.20
2018-12-31T18:33:07.086Z,9.20
2018-12-31T18:35:37.865Z,9.20
2018-12-31T18:38:08.673Z,9.20
2018-12-31T18:40:40.366Z,9.20
2018-12-31T18:43:11.433Z,9.20
2018-12-31T18:45:42.239Z,9.20
2018-12-31T18:48:13.103Z,9.20
2018-12-31T18:50:43.986Z,9.20
2018-12-31T18:53:15.178Z,9.20
2018-12-31T18:55:46.133Z,9.10
2018-12-31T18:58:16.950Z,9.10
2018-12-31T19:00:47.776Z,9.10
2018-12-31T19:03:18.932Z,9.10
2018-12-31T19:05:49.707Z,9.10
2018-12-31T19:08:20.887Z,9.00
2018-12-31T19:10:51.826Z,9.00
2018-12-31T19:13:22.607Z,9.00
2018-12-31T19:15:53.381Z,9.00
2018-12-31T19:18:24.248Z,9.10
2018-12-31T19:20:59.716Z,9.00
2018-12-31T19:23:34.738Z,9.00
2018-12-31T19:26:05.806Z,9.00
2018-12-31T19:28:37.444Z,9.00
2018-12-31T19:31:08.194Z,9.00
2018-12-31T19:33:40.211Z,9.00
2018-12-31T19:36:11.470Z,9.00
2018-12-31T19:38:42.232Z,9.00
2018-12-31T19:41:13.227Z,9.00
2018-12-31T19:43:44.037Z,9.00
2018-12-31T19:46:14.769Z,9.00
2018-12-31T19:48:47.813Z,8.90
2018-12-31T19:51:18.654Z,8.90
2018-12-31T19:53:49.448Z,8.90
2018-12-31T19:56:20.451Z,8.80
2018-12-31T19:58:51.352Z,8.90
2018-12-31T20:01:29.992Z,8.90
2018-12-31T20:04:02.221Z,8.90
2018-12-31T20:06:33.367Z,8.80
2018-12-31T20:09:06.091Z,8.80
2018-12-31T20:11:37.134Z,8.80
2018-12-31T20:14:08.013Z,8.80
2018-12-31T20:16:39.952Z,8.80
2018-12-31T20:19:12.465Z,8.80
2018-12-31T20:21:45.946Z,8.80
2018-12-31T20:24:17.390Z,8.80
2018-12-31T20:26:48.555Z,8.80
2018-12-31T20:29:21.506Z,8.80
2018-12-31T20:32:13.994Z,8.90
2018-12-31T20:34:39.575Z,8.80
2018-12-31T20:37:10.403Z,8.70
2018-12-31T20:39:42.825Z,8.80
2018-12-31T20:42:16.399Z,8.70
2018-12-31T20:44:50.337Z,8.70
2018-12-31T20:47:22.357Z,8.70
2018-12-31T20:49:56.137Z,8.60
2018-12-31T20:52:27.207Z,8.60
2018-12-31T20:55:01.168Z,8.60
2018-12-31T20:57:32.546Z,8.60
2018-12-31T21:00:03.560Z,8.60
2018-12-31T21:02:34.754Z,8.60
2018-12-31T21:05:06.155Z,8.60
2018-12-31T21:07:36.913Z,8.50
2018-12-31T21:10:09.945Z,8.50
2018-12-31T21:12:42.297Z,8.50
2018-12-31T21:15:13.238Z,8.50
2018-12-31T21:17:44.021Z,8.50
2018-12-31T21:20:14.754Z,8.50
2018-12-31T21:22:46.000Z,8.50
2018-12-31T21:25:16.925Z,8.40
2018-12-31T21:27:47.766Z,8.40
2018-12-31T21:30:18.603Z,8.40
2018-12-31T21:32:50.919Z,8.40
2018-12-31T21:35:21.698Z,8.50
2018-12-31T21:37:52.498Z,8.40
2018-12-31T21:40:23.416Z,8.30
2018-12-31T21:42:54.156Z,8.30
2018-12-31T21:45:24.942Z,8.30
2018-12-31T21:47:56.398Z,8.30
2018-12-31T21:50:27.045Z,8.30
2018-12-31T21:52:57.834Z,8.30
2018-12-31T21:55:28.655Z,8.30
2018-12-31T21:58:00.293Z,8.30
2018-12-31T22:00:30.999Z,8.20
2018-12-31T22:03:01.899Z,8.20
2018-12-31T22:05:32.721Z,8.20
2018-12-31T22:08:03.622Z,8.20
2018-12-31T22:10:34.345Z,8.30
2018-12-31T22:13:05.183Z,8.20
2018-12-31T22:15:35.922Z,8.20
2018-12-31T22:18:07.586Z,8.30
2018-12-31T22:20:38.364Z,8.20
2018-12-31T22:23:09.228Z,8.30
2018-12-31T22:25:39.934Z,8.30
2018-12-31T22:28:10.608Z,8.30
2018-12-31T22:30:41.318Z,8.30
2018-12-31T22:33:12.050Z,8.30
2018-12-31T22:35:43.074Z,8.30
2018-12-31T22:38:13.719Z,8.30
2018-12-31T22:40:44.479Z,8.30
2018-12-31T22:43:15.255Z,8.30
2018-12-31T22:45:46.177Z,8.30
2018-12-31T22:48:16.979Z,8.30
2018-12-31T22:50:47.765Z,8.30
2018-12-31T22:53:18.431Z,8.30
2018-12-31T22:55:49.053Z,8.30
2018-12-31T22:58:20.366Z,8.30
2018-12-31T23:00:51.688Z,8.30
2018-12-31T23:03:23.683Z,8.30
2018-12-31T23:05:54.519Z,8.30
2018-12-31T23:08:25.306Z,8.30
2018-12-31T23:10:55.973Z,8.40
2018-12-31T23:13:28.991Z,8.40
2018-12-31T23:15:59.690Z,8.40
2018-12-31T23:18:30.670Z,8.40
2018-12-31T23:21:02.765Z,8.30
2018-12-31T23:23:33.630Z,8.40
2018-12-31T23:26:04.394Z,8.40
2018-12-31T23:28:53.064Z,8.40
2018-12-31T23:31:24.245Z,8.40
2018-12-31T23:33:55.303Z,8.50
2018-12-31T23:36:25.937Z,8.50
2018-12-31T23:39:04.924Z,8.50
2018-12-31T23:41:29.499Z,8.50
2018-12-31T23:44:00.296Z,8.40
2018-12-31T23:46:32.875Z,8.40
2018-12-31T23:49:04.238Z,8.50
2018-12-31T23:51:34.993Z,8.50
2018-12-31T23:54:05.821Z,8.50
2018-12-31T23:56:36.670Z,8.50
2018-12-31T23:59:07.430Z,8.50
